createdAt,value
2022-09-28T00:01:56.268Z,8.00
2022-09-28T00:04:23.245Z,8.00
2022-09-28T00:06:49.965Z,8.00
2022-09-28T00:09:16.866Z,7.90
2022-09-28T00:11:43.883Z,7.90
2022-09-28T00:14:10.726Z,7.90
2022-09-28T00:16:44.103Z,7.90
2022-09-28T00:19:11.403Z,7.90
2022-09-28T00:21:38.770Z,7.90
2022-09-28T00:24:18.997Z,7.90
2022-09-28T00:26:52.288Z,7.80
2022-09-28T00:29:20.256Z,7.80
2022-09-28T00:31:47.339Z,7.80
2022-09-28T00:34:14.120Z,7.80
2022-09-28T00:36:43.091Z,7.80
2022-09-28T00:39:09.966Z,7.80
2022-09-28T00:41:38.772Z,7.70
2022-09-28T00:44:44.172Z,7.70
2022-09-28T00:47:18.428Z,7.70
2022-09-28T00:49:49.177Z,7.70
2022-09-28T00:52:17.581Z,7.60
2022-09-28T00:54:44.352Z,7.60
2022-09-28T00:57:11.064Z,7.60
2022-09-28T00:59:37.809Z,7.50
2022-09-28T01:02:04.590Z,7.50
2022-09-28T01:04:31.371Z,7.50
2022-09-28T01:06:58.190Z,7.50
2022-09-28T01:09:25.567Z,7.50
2022-09-28T01:11:52.346Z,7.50
2022-09-28T01:14:19.203Z,7.40
2022-09-28T01:16:56.011Z,7.40
2022-09-28T01:19:42.465Z,7.40
2022-09-28T01:22:35.601Z,7.40
2022-09-28T01:25:21.415Z,7.40
2022-09-28T01:27:49.867Z,7.30
2022-09-28T01:30:18.365Z,7.30
2022-09-28T01:32:51.325Z,7.30
2022-09-28T01:35:23.570Z,7.20
2022-09-28T01:37:52.252Z,7.20
2022-09-28T01:40:19.448Z,7.20
2022-09-28T01:42:47.200Z,7.20
2022-09-28T01:45:37.357Z,7.20
2022-09-28T01:48:05.865Z,7.20
2022-09-28T01:50:35.119Z,7.20
2022-09-28T01:53:07.333Z,7.10
2022-09-28T01:55:34.862Z,7.10
2022-09-28T01:58:18.179Z,7.10
2022-09-28T02:00:46.488Z,7.10
2022-09-28T02:03:17.620Z,7.10
2022-09-28T02:05:57.221Z,7.00
2022-09-28T02:08:33.619Z,7.00
2022-09-28T02:11:03.331Z,7.00
2022-09-28T02:13:33.981Z,7.00
2022-09-28T02:16:03.995Z,6.90
2022-09-28T02:18:30.793Z,6.90
2022-09-28T02:21:01.647Z,6.90
2022-09-28T02:23:29.335Z,6.80
2022-09-28T02:26:00.952Z,6.80
2022-09-28T02:28:27.928Z,6.70
2022-09-28T02:30:54.668Z,6.70
2022-09-28T02:33:25.836Z,6.70
2022-09-28T02:35:52.610Z,6.70
2022-09-28T02:38:21.207Z,6.70
2022-09-28T02:40:50.667Z,6.70
2022-09-28T02:43:24.531Z,6.70
2022-09-28T02:45:51.851Z,6.70
2022-09-28T02:49:00.061Z,6.70
2022-09-28T02:51:41.027Z,6.70
2022-09-28T02:54:31.141Z,6.70
2022-09-28T02:57:20.202Z,6.70
2022-09-28T02:59:57.001Z,6.70
2022-09-28T03:02:24.994Z,6.70
2022-09-28T03:04:51.808Z,6.70
2022-09-28T03:07:27.519Z,6.70
2022-09-28T03:09:56.066Z,6.70
2022-09-28T03:12:23.544Z,6.70
2022-09-28T03:15:08.848Z,6.60
2022-09-28T03:17:35.616Z,6.60
2022-09-28T03:20:03.167Z,6.60
2022-09-28T03:22:29.947Z,6.60
2022-09-28T03:24:56.749Z,6.60
2022-09-28T03:27:23.681Z,6.50
2022-09-28T03:29:50.517Z,6.50
2022-09-28T03:32:17.276Z,6.50
2022-09-28T03:34:44.068Z,6.40
2022-09-28T03:37:11.272Z,6.40
2022-09-28T03:39:38.064Z,6.30
2022-09-28T03:42:04.866Z,6.30
2022-09-28T03:44:34.574Z,6.20
2022-09-28T03:47:01.437Z,6.20
2022-09-28T03:49:28.195Z,6.10
2022-09-28T03:51:54.986Z,6.00
2022-09-28T03:54:24.050Z,6.00
2022-09-28T03:56:51.884Z,5.90
2022-09-28T03:59:18.833Z,5.90
2022-09-28T04:01:45.877Z,5.90
2022-09-28T04:04:13.929Z,5.90
2022-09-28T04:06:40.754Z,5.90
2022-09-28T04:09:07.714Z,5.90
2022-09-28T04:11:47.596Z,5.80
2022-09-28T04:14:21.248Z,5.80
2022-09-28T04:16:48.238Z,5.80
2022-09-28T04:19:15.949Z,5.80
2022-09-28T04:21:57.362Z,5.80
2022-09-28T04:24:24.066Z,5.80
2022-09-28T04:26:51.488Z,5.80
2022-09-28T04:29:19.220Z,5.70
2022-09-28T04:31:56.795Z,5.70
2022-09-28T04:34:37.115Z,5.60
2022-09-28T04:37:05.023Z,5.60
2022-09-28T04:39:31.827Z,5.60
2022-09-28T04:41:58.647Z,5.60
2022-09-28T04:44:27.111Z,5.50
2022-09-28T04:47:02.976Z,5.50
2022-09-28T04:49:31.903Z,5.40
2022-09-28T04:52:05.186Z,5.40
2022-09-28T04:54:34.117Z,5.40
2022-09-28T04:57:01.900Z,5.40
2022-09-28T04:59:28.678Z,5.40
2022-09-28T05:01:55.448Z,5.40
2022-09-28T05:04:37.199Z,5.40
2022-09-28T05:07:22.563Z,5.30
2022-09-28T05:09:49.390Z,5.30
2022-09-28T05:12:16.147Z,5.30
2022-09-28T05:14:42.859Z,5.30
2022-09-28T05:17:10.523Z,5.20
2022-09-28T05:19:46.067Z,5.20
2022-09-28T05:22:14.863Z,5.30
2022-09-28T05:24:46.404Z,5.20
2022-09-28T05:27:13.684Z,5.20
2022-09-28T05:29:40.881Z,5.20
2022-09-28T05:32:25.852Z,5.30
2022-09-28T05:35:11.204Z,5.30
2022-09-28T05:37:45.265Z,5.30
2022-09-28T05:40:12.152Z,5.30
2022-09-28T05:42:39.372Z,5.30
2022-09-28T05:45:06.367Z,5.20
2022-09-28T05:47:36.977Z,5.20
2022-09-28T05:50:04.004Z,5.20
2022-09-28T05:52:30.858Z,5.10
2022-09-28T05:54:57.668Z,5.10
2022-09-28T05:57:26.104Z,5.10
2022-09-28T05:59:52.848Z,5.10
2022-09-28T06:02:20.014Z,5.10
2022-09-28T06:04:50.291Z,5.10
2022-09-28T06:07:17.831Z,5.20
2022-09-28T06:09:44.864Z,5.20
2022-09-28T06:12:17.332Z,5.30
2022-09-28T06:14:48.650Z,5.30
2022-09-28T06:17:15.574Z,5.40
2022-09-28T06:19:47.408Z,5.40
2022-09-28T06:22:25.508Z,5.50
2022-09-28T06:25:00.005Z,5.60
2022-09-28T06:27:27.233Z,5.60
2022-09-28T06:29:54.094Z,5.70
2022-09-28T06:32:20.875Z,5.70
2022-09-28T06:34:54.021Z,5.80
2022-09-28T06:37:25.945Z,5.80
2022-09-28T06:39:53.304Z,5.90
2022-09-28T06:42:20.172Z,5.90
2022-09-28T06:45:05.934Z,6.00
2022-09-28T06:48:11.164Z,6.00
2022-09-28T06:50:40.418Z,6.10
2022-09-28T06:53:28.442Z,6.10
2022-09-28T06:56:20.969Z,6.20
2022-09-28T06:58:48.141Z,6.20
2022-09-28T07:01:15.114Z,6.30
2022-09-28T07:04:17.336Z,6.30
2022-09-28T07:07:02.843Z,6.40
2022-09-28T07:10:08.905Z,6.40
2022-09-28T07:12:56.294Z,6.50
2022-09-28T07:15:29.369Z,6.50
2022-09-28T07:18:01.899Z,6.60
2022-09-28T07:20:31.152Z,6.60
2022-09-28T07:23:13.781Z,6.60
2022-09-28T07:26:05.822Z,6.70
2022-09-28T07:28:44.727Z,6.80
2022-09-28T07:31:30.062Z,6.90
2022-09-28T07:34:17.371Z,6.90
2022-09-28T07:36:59.626Z,7.00
2022-09-28T07:39:26.346Z,7.10
2022-09-28T07:41:56.661Z,7.20
2022-09-28T07:44:27.841Z,7.30
2022-09-28T07:46:54.681Z,7.30
2022-09-28T07:49:27.841Z,7.40
2022-09-28T07:52:13.841Z,7.50
2022-09-28T07:55:02.217Z,7.60
2022-09-28T07:57:56.115Z,7.70
2022-09-28T08:00:51.935Z,7.80
2022-09-28T08:03:19.363Z,7.90
2022-09-28T08:05:46.820Z,8.00
2022-09-28T08:08:13.934Z,8.10
2022-09-28T08:10:46.875Z,8.20
2022-09-28T08:13:37.374Z,8.30
2022-09-28T08:16:19.047Z,8.40
2022-09-28T08:19:04.269Z,8.50
2022-09-28T08:21:45.981Z,8.60
2022-09-28T08:24:13.744Z,8.70
2022-09-28T08:26:40.479Z,8.80
2022-09-28T08:29:08.659Z,8.90
2022-09-28T08:31:44.668Z,9.00
2022-09-28T08:34:20.699Z,9.30
2022-09-28T08:37:16.704Z,9.50
2022-09-28T08:40:02.081Z,9.90
2022-09-28T08:42:39.595Z,10.00
2022-09-28T08:45:47.368Z,10.20
2022-09-28T08:49:13.476Z,10.50
2022-09-28T08:52:08.288Z,10.60
2022-09-28T08:55:15.499Z,10.60
2022-09-28T08:58:08.787Z,10.60
2022-09-28T09:00:41.729Z,10.70
2022-09-28T09:03:19.069Z,10.90
2022-09-28T09:06:09.794Z,11.00
2022-09-28T09:09:13.347Z,11.20
2022-09-28T09:11:45.336Z,11.40
2022-09-28T09:14:12.154Z,11.60
2022-09-28T09:16:49.363Z,11.90
2022-09-28T09:19:49.407Z,12.10
2022-09-28T09:22:39.017Z,12.40
2022-09-28T09:25:26.055Z,12.70
2022-09-28T09:28:08.306Z,12.90
2022-09-28T09:30:40.487Z,13.10
2022-09-28T09:33:07.517Z,13.30
2022-09-28T09:35:45.444Z,13.60
2022-09-28T09:38:50.587Z,13.80
2022-09-28T09:41:50.760Z,14.00
2022-09-28T09:44:52.883Z,14.20
2022-09-28T09:47:39.452Z,14.40
2022-09-28T09:50:29.942Z,14.50
2022-09-28T09:53:27.617Z,14.60
2022-09-28T09:55:57.451Z,14.60
2022-09-28T09:58:38.540Z,14.50
2022-09-28T10:01:16.185Z,14.60
2022-09-28T10:04:03.560Z,14.60
2022-09-28T10:06:32.022Z,14.80
2022-09-28T10:09:01.745Z,14.80
2022-09-28T10:11:29.282Z,14.80
2022-09-28T10:13:57.711Z,14.80
2022-09-28T10:16:54.317Z,14.80
2022-09-28T10:19:41.036Z,14.60
2022-09-28T10:22:27.054Z,14.50
2022-09-28T10:24:58.344Z,14.50
2022-09-28T10:27:26.816Z,14.50
2022-09-28T10:29:54.576Z,14.50
2022-09-28T10:32:23.672Z,14.80
2022-09-28T10:34:54.986Z,15.00
2022-09-28T10:37:27.296Z,15.30
2022-09-28T10:40:05.983Z,15.60
2022-09-28T10:42:36.141Z,15.90
2022-09-28T10:45:05.799Z,16.00
2022-09-28T10:47:35.525Z,16.20
2022-09-28T10:50:04.674Z,16.40
2022-09-28T10:52:32.458Z,16.60
2022-09-28T10:54:59.701Z,16.90
2022-09-28T10:57:27.998Z,17.20
2022-09-28T10:59:59.634Z,17.40
2022-09-28T11:02:49.593Z,17.30
2022-09-28T11:05:21.736Z,17.10
2022-09-28T11:07:49.819Z,16.80
2022-09-28T11:10:27.949Z,16.50
2022-09-28T11:12:58.903Z,16.30
2022-09-28T11:15:28.778Z,16.30
2022-09-28T11:17:55.960Z,16.10
2022-09-28T11:20:27.820Z,16.00
2022-09-28T11:22:58.049Z,15.90
2022-09-28T11:25:28.732Z,15.80
2022-09-28T11:27:55.709Z,16.00
2022-09-28T11:30:34.153Z,16.40
2022-09-28T11:33:31.325Z,16.70
2022-09-28T11:36:19.857Z,16.70
2022-09-28T11:38:56.142Z,16.60
2022-09-28T11:41:50.921Z,16.40
2022-09-28T11:44:25.450Z,16.20
2022-09-28T11:47:10.073Z,16.10
2022-09-28T11:49:50.455Z,16.10
2022-09-28T11:52:19.137Z,16.10
2022-09-28T11:54:56.055Z,16.20
2022-09-28T11:57:24.532Z,16.30
2022-09-28T11:59:52.809Z,16.50
2022-09-28T12:02:22.054Z,16.60
2022-09-28T12:04:58.572Z,16.70
2022-09-28T12:07:29.832Z,16.70
2022-09-28T12:10:02.857Z,16.80
2022-09-28T12:12:32.708Z,16.70
2022-09-28T12:15:03.208Z,16.60
2022-09-28T12:17:40.577Z,16.40
2022-09-28T12:20:13.848Z,16.30
2022-09-28T12:22:41.915Z,16.30
2022-09-28T12:25:10.393Z,16.20
2022-09-28T12:27:41.208Z,16.20
2022-09-28T12:30:15.042Z,16.20
2022-09-28T12:32:44.946Z,16.60
2022-09-28T12:35:17.887Z,17.00
2022-09-28T12:38:08.943Z,17.30
2022-09-28T12:40:53.412Z,17.40
2022-09-28T12:43:20.385Z,17.40
2022-09-28T12:46:11.618Z,17.40
2022-09-28T12:48:43.609Z,17.50
2022-09-28T12:51:10.392Z,18.00
2022-09-28T12:53:53.046Z,18.70
2022-09-28T12:56:42.327Z,18.90
2022-09-28T12:59:09.160Z,18.80
2022-09-28T13:01:36.178Z,18.60
2022-09-28T13:04:23.782Z,18.50
2022-09-28T13:06:57.376Z,18.80
2022-09-28T13:09:24.876Z,19.90
2022-09-28T13:12:10.028Z,22.20
2022-09-28T13:14:36.844Z,24.50
2022-09-28T13:17:09.298Z,26.70
2022-09-28T13:19:36.243Z,28.00
2022-09-28T13:22:15.316Z,28.60
2022-09-28T13:24:44.298Z,28.00
2022-09-28T13:27:13.498Z,27.40
2022-09-28T13:29:40.271Z,27.70
2022-09-28T13:32:08.090Z,28.60
2022-09-28T13:34:35.301Z,28.90
2022-09-28T13:37:16.780Z,28.60
2022-09-28T13:39:53.886Z,27.70
2022-09-28T13:42:36.932Z,26.40
2022-09-28T13:45:14.976Z,25.20
2022-09-28T13:47:44.815Z,24.00
2022-09-28T13:50:19.660Z,22.80
2022-09-28T13:52:56.986Z,21.80
2022-09-28T13:55:25.307Z,21.10
2022-09-28T13:57:53.818Z,20.60
2022-09-28T14:00:45.670Z,20.40
2022-09-28T14:03:13.415Z,20.50
2022-09-28T14:05:59.205Z,21.00
2022-09-28T14:08:33.611Z,21.00
2022-09-28T14:11:19.564Z,20.70
2022-09-28T14:14:05.282Z,20.30
2022-09-28T14:16:32.666Z,20.00
2022-09-28T14:19:02.384Z,19.80
2022-09-28T14:21:49.389Z,19.70
2022-09-28T14:24:21.708Z,19.60
2022-09-28T14:27:06.946Z,19.40
2022-09-28T14:29:37.212Z,19.30
2022-09-28T14:32:24.667Z,19.10
2022-09-28T14:34:55.791Z,19.10
2022-09-28T14:37:46.120Z,19.20
2022-09-28T14:40:38.419Z,19.20
2022-09-28T14:43:28.799Z,19.10
2022-09-28T14:46:18.982Z,19.00
2022-09-28T14:48:52.726Z,18.80
2022-09-28T14:51:33.744Z,18.70
2022-09-28T14:54:03.706Z,18.50
2022-09-28T14:56:32.840Z,18.30
2022-09-28T14:58:59.860Z,18.10
2022-09-28T15:01:26.587Z,17.90
2022-09-28T15:03:54.643Z,17.80
2022-09-28T15:06:24.708Z,17.70
2022-09-28T15:08:51.545Z,17.60
2022-09-28T15:11:20.293Z,17.50
2022-09-28T15:13:47.093Z,17.40
2022-09-28T15:16:14.484Z,17.40
2022-09-28T15:19:01.012Z,17.30
2022-09-28T15:21:31.841Z,17.30
2022-09-28T15:23:58.560Z,17.40
2022-09-28T15:26:27.525Z,17.50
2022-09-28T15:28:54.489Z,17.60
2022-09-28T15:31:23.046Z,17.70
2022-09-28T15:36:38.905Z,17.80
2022-09-28T15:39:06.643Z,17.80
2022-09-28T15:41:33.565Z,17.70
2022-09-28T15:44:12.574Z,17.60
2022-09-28T15:46:39.878Z,17.70
2022-09-28T15:49:07.534Z,17.70
2022-09-28T15:51:50.094Z,17.80
2022-09-28T15:54:19.535Z,17.80
2022-09-28T15:56:54.791Z,18.00
2022-09-28T15:59:30.698Z,18.40
2022-09-28T16:02:09.783Z,18.90
2022-09-28T16:04:39.681Z,19.40
2022-09-28T16:07:09.557Z,20.70
2022-09-28T16:09:55.291Z,21.80
2022-09-28T16:12:22.350Z,23.00
2022-09-28T16:14:49.914Z,24.30
2022-09-28T16:17:43.012Z,25.50
2022-09-28T16:20:29.450Z,26.50
2022-09-28T16:22:57.158Z,27.50
2022-09-28T16:25:24.660Z,28.10
2022-09-28T16:27:55.241Z,28.50
2022-09-28T16:30:29.684Z,28.80
2022-09-28T16:32:57.310Z,29.00
2022-09-28T16:35:31.050Z,29.20
2022-09-28T16:38:10.460Z,29.30
2022-09-28T16:40:40.918Z,29.30
2022-09-28T16:43:07.859Z,29.40
2022-09-28T16:45:35.244Z,29.40
2022-09-28T16:48:03.068Z,29.00
2022-09-28T16:50:29.816Z,28.20
2022-09-28T16:53:30.219Z,27.70
2022-09-28T16:55:56.973Z,27.30
2022-09-28T16:58:25.108Z,27.00
2022-09-28T17:00:54.650Z,26.70
2022-09-28T17:03:23.379Z,25.90
2022-09-28T17:05:50.690Z,24.60
2022-09-28T17:08:18.194Z,23.20
2022-09-28T17:11:09.756Z,21.80
2022-09-28T17:13:33.940Z,20.50
2022-09-28T17:16:01.644Z,19.40
2022-09-28T17:18:31.664Z,18.50
2022-09-28T17:20:59.895Z,17.80
2022-09-28T17:23:26.838Z,17.20
2022-09-28T17:25:55.523Z,16.70
2022-09-28T17:28:23.405Z,16.20
2022-09-28T17:30:50.165Z,15.80
2022-09-28T17:33:16.920Z,15.40
2022-09-28T17:35:44.260Z,15.00
2022-09-28T17:38:14.384Z,14.70
2022-09-28T17:40:41.684Z,14.40
2022-09-28T17:43:08.605Z,14.10
2022-09-28T17:45:39.499Z,13.80
2022-09-28T17:48:16.059Z,13.60
2022-09-28T17:50:46.292Z,13.30
2022-09-28T17:53:13.489Z,13.10
2022-09-28T17:55:40.418Z,12.80
2022-09-28T17:58:13.174Z,12.70
2022-09-28T18:00:40.289Z,12.50
2022-09-28T18:03:09.684Z,12.40
2022-09-28T18:05:36.672Z,12.20
2022-09-28T18:08:04.490Z,12.10
2022-09-28T18:10:31.230Z,11.90
2022-09-28T18:12:57.931Z,11.70
2022-09-28T18:15:24.734Z,11.60
2022-09-28T18:17:51.421Z,11.50
2022-09-28T18:20:18.373Z,11.30
2022-09-28T18:22:45.221Z,11.20
2022-09-28T18:25:11.943Z,11.00
2022-09-28T18:27:38.737Z,10.90
2022-09-28T18:30:05.941Z,10.80
2022-09-28T18:32:38.963Z,10.60
2022-09-28T18:35:06.201Z,10.50
2022-09-28T18:37:36.492Z,10.40
2022-09-28T18:40:03.648Z,10.30
2022-09-28T18:42:31.637Z,10.20
2022-09-28T18:44:58.332Z,10.10
2022-09-28T18:47:25.485Z,10.00
2022-09-28T18:49:52.235Z,10.00
2022-09-28T18:52:18.960Z,9.90
2022-09-28T18:54:46.838Z,9.90
2022-09-28T18:57:13.569Z,9.90
2022-09-28T18:59:40.277Z,9.80
2022-09-28T19:02:07.095Z,9.80
2022-09-28T19:04:33.902Z,9.80
2022-09-28T19:07:00.700Z,9.80
2022-09-28T19:09:28.075Z,9.70
2022-09-28T19:11:54.926Z,9.70
2022-09-28T19:14:21.749Z,9.60
2022-09-28T19:16:49.532Z,9.60
2022-09-28T19:19:16.741Z,9.50
2022-09-28T19:21:43.597Z,9.50
2022-09-28T19:24:17.099Z,9.50
2022-09-28T19:26:44.130Z,9.40
2022-09-28T19:29:11.098Z,9.40
2022-09-28T19:31:37.870Z,9.30
2022-09-28T19:34:04.753Z,9.30
2022-09-28T19:36:31.963Z,9.30
2022-09-28T19:39:02.571Z,9.30
2022-09-28T19:41:44.154Z,9.30
2022-09-28T19:44:11.472Z,9.30
2022-09-28T19:46:39.500Z,9.20
2022-09-28T19:49:07.274Z,9.20
2022-09-28T19:51:34.133Z,9.20
2022-09-28T19:54:01.255Z,9.10
2022-09-28T19:56:31.710Z,9.10
2022-09-28T19:59:01.800Z,9.00
2022-09-28T20:01:28.959Z,9.00
2022-09-28T20:03:59.834Z,9.00
2022-09-28T20:06:27.393Z,9.00
2022-09-28T20:08:56.933Z,8.90
2022-09-28T20:11:26.355Z,8.90
2022-09-28T20:14:01.418Z,8.80
2022-09-28T20:16:29.291Z,8.80
2022-09-28T20:18:58.293Z,8.70
2022-09-28T20:21:26.881Z,8.70
2022-09-28T20:23:54.054Z,8.70
2022-09-28T20:26:20.783Z,8.60
2022-09-28T20:28:47.483Z,8.60
2022-09-28T20:31:14.253Z,8.50
2022-09-28T20:33:44.354Z,8.40
2022-09-28T20:36:12.313Z,8.40
2022-09-28T20:38:40.520Z,8.30
2022-09-28T20:41:08.108Z,8.30
2022-09-28T20:43:35.194Z,8.20
2022-09-28T20:46:02.402Z,8.20
2022-09-28T20:48:29.329Z,8.10
2022-09-28T20:50:59.991Z,8.10
2022-09-28T20:53:26.796Z,8.10
2022-09-28T20:55:57.526Z,8.00
2022-09-28T20:58:24.296Z,8.00
2022-09-28T21:00:50.992Z,8.00
2022-09-28T21:03:18.045Z,7.90
2022-09-28T21:05:45.165Z,7.90
2022-09-28T21:08:11.943Z,7.90
2022-09-28T21:10:42.673Z,7.90
2022-09-28T21:13:09.457Z,7.90
2022-09-28T21:15:36.216Z,7.90
2022-09-28T21:18:02.960Z,7.90
2022-09-28T21:20:29.734Z,7.90
2022-09-28T21:22:56.457Z,7.90
2022-09-28T21:25:23.304Z,7.90
2022-09-28T21:27:50.624Z,7.90
2022-09-28T21:30:19.019Z,7.80
2022-09-28T21:32:46.179Z,7.80
2022-09-28T21:35:14.304Z,7.70
2022-09-28T21:37:41.574Z,7.70
2022-09-28T21:40:09.864Z,7.70
2022-09-28T21:42:36.636Z,7.60
2022-09-28T21:45:03.519Z,7.50
2022-09-28T21:47:30.486Z,7.50
2022-09-28T21:49:57.372Z,7.50
2022-09-28T21:52:24.148Z,7.40
2022-09-28T21:54:50.890Z,7.40
2022-09-28T21:57:18.961Z,7.30
2022-09-28T21:59:47.073Z,7.30
2022-09-28T22:02:13.954Z,7.30
2022-09-28T22:04:40.958Z,7.20
2022-09-28T22:07:07.669Z,7.20
2022-09-28T22:09:34.882Z,7.20
2022-09-28T22:12:04.298Z,7.10
2022-09-28T22:14:32.436Z,7.10
2022-09-28T22:16:59.674Z,7.10
2022-09-28T22:19:26.369Z,7.00
2022-09-28T22:21:53.130Z,7.00
2022-09-28T22:24:20.089Z,7.00
2022-09-28T22:26:47.124Z,7.00
2022-09-28T22:29:13.882Z,7.00
2022-09-28T22:31:40.750Z,7.00
2022-09-28T22:34:07.731Z,7.00
2022-09-28T22:36:34.548Z,7.00
2022-09-28T22:39:01.276Z,7.10
2022-09-28T22:41:28.312Z,7.00
2022-09-28T22:43:55.141Z,7.00
2022-09-28T22:46:22.749Z,7.00
2022-09-28T22:48:50.337Z,7.00
2022-09-28T22:51:17.078Z,6.90
2022-09-28T22:53:43.793Z,6.90
2022-09-28T22:56:14.653Z,6.90
2022-09-28T22:58:44.341Z,6.90
2022-09-28T23:01:12.035Z,6.80
2022-09-28T23:03:42.535Z,6.80
2022-09-28T23:06:09.511Z,6.80
2022-09-28T23:08:36.323Z,6.80
2022-09-28T23:11:03.412Z,6.80
2022-09-28T23:13:31.097Z,6.70
2022-09-28T23:15:58.402Z,6.70
2022-09-28T23:18:26.084Z,6.70
2022-09-28T23:20:56.416Z,6.60
2022-09-28T23:23:23.174Z,6.60
2022-09-28T23:25:50.325Z,6.60
2022-09-28T23:28:17.324Z,6.60
2022-09-28T23:30:44.079Z,6.60
2022-09-28T23:33:13.950Z,6.60
2022-09-28T23:35:41.192Z,6.60
2022-09-28T23:38:14.514Z,6.60
2022-09-28T23:40:41.388Z,6.60
2022-09-28T23:43:08.197Z,6.60
2022-09-28T23:45:34.920Z,6.60
2022-09-28T23:48:01.938Z,6.60
2022-09-28T23:50:28.649Z,6.60
2022-09-28T23:52:55.405Z,6.60
2022-09-28T23:55:22.228Z,6.60
2022-09-28T23:57:48.985Z,6.60
